sensor_id;sensor_type;location;lat;lon;timestamp;pressure;altitude;pressure_sealevel;temperature;humidity
75668;BME280;64266;48.798;44.756;2024-03-06T00:00:42;101976.66;;;1.40;65.73
75668;BME280;64266;48.798;44.756;2024-03-06T00:05:45;101930.41;;;1.11;65.82
75668;BME280;64266;48.798;44.756;2024-03-06T00:10:48;101931.94;;;1.13;65.65
75668;BME280;64266;48.798;44.756;2024-03-06T00:15:51;101982.38;;;1.55;65.33
75668;BME280;64266;48.798;44.756;2024-03-06T00:20:54;101960.81;;;1.32;64.38
75668;BME280;64266;48.798;44.756;2024-03-06T00:25:58;101926.97;;;1.10;64.34
75668;BME280;64266;48.798;44.756;2024-03-06T00:31:02;101916.97;;;0.94;63.19
75668;BME280;64266;48.798;44.756;2024-03-06T00:36:05;101934.41;;;0.94;63.91
75668;BME280;64266;48.798;44.756;2024-03-06T00:41:09;101930.09;;;0.72;64.37
75668;BME280;64266;48.798;44.756;2024-03-06T00:46:12;101912.94;;;0.59;66.59
75668;BME280;64266;48.798;44.756;2024-03-06T00:51:16;101973.00;;;0.90;67.14
75668;BME280;64266;48.798;44.756;2024-03-06T00:56:25;101940.06;;;0.35;65.35
75668;BME280;64266;48.798;44.756;2024-03-06T01:01:28;101960.09;;;0.35;67.12
75668;BME280;64266;48.798;44.756;2024-03-06T01:06:32;101920.38;;;0.42;68.36
75668;BME280;64266;48.798;44.756;2024-03-06T01:11:36;101953.25;;;0.66;65.79
75668;BME280;64266;48.798;44.756;2024-03-06T01:16:39;101953.81;;;0.48;66.46
75668;BME280;64266;48.798;44.756;2024-03-06T01:21:42;101972.72;;;0.62;65.90
75668;BME280;64266;48.798;44.756;2024-03-06T01:26:45;101967.63;;;0.60;64.86
75668;BME280;64266;48.798;44.756;2024-03-06T01:31:48;101906.91;;;0.26;65.74
75668;BME280;64266;48.798;44.756;2024-03-06T01:36:52;101975.38;;;0.50;66.68
75668;BME280;64266;48.798;44.756;2024-03-06T01:41:55;101996.25;;;0.50;65.54
75668;BME280;64266;48.798;44.756;2024-03-06T01:46:59;102004.69;;;0.32;65.06
75668;BME280;64266;48.798;44.756;2024-03-06T01:52:03;102004.81;;;0.19;65.03
75668;BME280;64266;48.798;44.756;2024-03-06T01:57:08;101964.78;;;0.09;65.09
75668;BME280;64266;48.798;44.756;2024-03-06T02:02:12;102010.41;;;0.37;65.49
75668;BME280;64266;48.798;44.756;2024-03-06T02:07:19;101992.72;;;0.29;64.89
75668;BME280;64266;48.798;44.756;2024-03-06T02:12:23;102004.34;;;0.36;65.26
75668;BME280;64266;48.798;44.756;2024-03-06T02:17:26;101990.84;;;0.20;66.49
75668;BME280;64266;48.798;44.756;2024-03-06T02:22:32;101982.66;;;-0.09;64.75
75668;BME280;64266;48.798;44.756;2024-03-06T02:27:36;102010.63;;;0.00;65.61
75668;BME280;64266;48.798;44.756;2024-03-06T02:32:40;101993.44;;;-0.02;65.86
75668;BME280;64266;48.798;44.756;2024-03-06T02:37:43;101979.13;;;-0.08;65.46
75668;BME280;64266;48.798;44.756;2024-03-06T02:42:47;101952.69;;;-0.36;65.96
75668;BME280;64266;48.798;44.756;2024-03-06T02:47:51;102000.09;;;0.02;64.11
75668;BME280;64266;48.798;44.756;2024-03-06T02:52:55;101944.63;;;-0.44;65.12
75668;BME280;64266;48.798;44.756;2024-03-06T02:58:04;101945.22;;;-0.41;66.03
75668;BME280;64266;48.798;44.756;2024-03-06T03:03:07;102028.19;;;-0.02;64.36
75668;BME280;64266;48.798;44.756;2024-03-06T03:08:10;102036.00;;;-0.02;64.36
75668;BME280;64266;48.798;44.756;2024-03-06T03:13:13;101934.69;;;-0.62;64.27
75668;BME280;64266;48.798;44.756;2024-03-06T03:18:17;101986.69;;;-0.38;63.53
75668;BME280;64266;48.798;44.756;2024-03-06T03:23:20;102003.00;;;-0.47;63.42
75668;BME280;64266;48.798;44.756;2024-03-06T03:28:25;102007.72;;;-0.52;63.80
75668;BME280;64266;48.798;44.756;2024-03-06T03:33:28;102008.59;;;-0.29;65.28
75668;BME280;64266;48.798;44.756;2024-03-06T03:38:32;102029.44;;;-0.40;63.98
75668;BME280;64266;48.798;44.756;2024-03-06T03:43:35;102037.66;;;-0.12;65.29
75668;BME280;64266;48.798;44.756;2024-03-06T03:48:39;102014.03;;;-0.32;62.49
75668;BME280;64266;48.798;44.756;2024-03-06T03:53:43;102055.13;;;-0.47;65.36
75668;BME280;64266;48.798;44.756;2024-03-06T03:58:46;102050.97;;;-0.49;65.34
75668;BME280;64266;48.798;44.756;2024-03-06T04:03:50;102044.06;;;-0.62;66.97
75668;BME280;64266;48.798;44.756;2024-03-06T04:08:54;102050.38;;;-0.53;66.26
75668;BME280;64266;48.798;44.756;2024-03-06T04:13:57;102021.38;;;-0.83;65.84
75668;BME280;64266;48.798;44.756;2024-03-06T04:19:01;102083.31;;;-0.41;65.34
75668;BME280;64266;48.798;44.756;2024-03-06T04:24:04;102069.97;;;-0.25;65.04
75668;BME280;64266;48.798;44.756;2024-03-06T04:29:08;102038.19;;;-0.41;65.08
75668;BME280;64266;48.798;44.756;2024-03-06T04:34:11;102031.28;;;-0.65;65.73
75668;BME280;64266;48.798;44.756;2024-03-06T04:39:14;102044.34;;;-0.42;64.85
75668;BME280;64266;48.798;44.756;2024-03-06T04:44:18;102067.47;;;-0.38;63.13
75668;BME280;64266;48.798;44.756;2024-03-06T04:49:21;102060.66;;;-0.51;64.93
75668;BME280;64266;48.798;44.756;2024-03-06T04:54:23;102065.53;;;-0.82;63.03
75668;BME280;64266;48.798;44.756;2024-03-06T04:59:26;102076.94;;;-0.72;64.84
75668;BME280;64266;48.798;44.756;2024-03-06T05:04:30;102024.53;;;-0.91;66.15
75668;BME280;64266;48.798;44.756;2024-03-06T05:09:51;102012.38;;;-0.79;64.17
75668;BME280;64266;48.798;44.756;2024-03-06T05:15:12;102054.50;;;-0.62;64.10
75668;BME280;64266;48.798;44.756;2024-03-06T05:20:33;102067.78;;;-0.42;65.03
75668;BME280;64266;48.798;44.756;2024-03-06T05:25:53;102000.81;;;-0.75;63.98
75668;BME280;64266;48.798;44.756;2024-03-06T05:31:18;102087.00;;;-0.32;64.47
75668;BME280;64266;48.798;44.756;2024-03-06T05:36:40;102068.78;;;-0.32;64.15
75668;BME280;64266;48.798;44.756;2024-03-06T05:42:02;102035.22;;;-0.37;64.09
75668;BME280;64266;48.798;44.756;2024-03-06T05:47:23;102035.28;;;-0.15;63.94
75668;BME280;64266;48.798;44.756;2024-03-06T05:52:43;102072.19;;;0.36;63.35
75668;BME280;64266;48.798;44.756;2024-03-06T05:58:04;102018.91;;;0.28;62.86
75668;BME280;64266;48.798;44.756;2024-03-06T06:03:16;102026.16;;;0.35;61.23
75668;BME280;64266;48.798;44.756;2024-03-06T06:08:20;102062.91;;;0.43;61.58
75668;BME280;64266;48.798;44.756;2024-03-06T06:13:24;101995.00;;;0.12;62.68
75668;BME280;64266;48.798;44.756;2024-03-06T06:18:27;102027.09;;;0.45;60.89
75668;BME280;64266;48.798;44.756;2024-03-06T06:23:30;102008.13;;;0.32;60.67
75668;BME280;64266;48.798;44.756;2024-03-06T06:28:33;102047.22;;;0.66;60.30
75668;BME280;64266;48.798;44.756;2024-03-06T06:33:38;102043.44;;;0.59;61.74
75668;BME280;64266;48.798;44.756;2024-03-06T06:38:41;102006.59;;;0.52;60.90
